TimeEST,TemperatureF,Dew PointF,Humidity,Sea Level PressureIn,VisibilityMPH,Wind Direction,Wind SpeedMPH,Gust SpeedMPH,PrecipitationIn,Events,Conditions,WindDirDegrees,DateUTC
12:51 AM,28.9,21.0,72,30.39,10.0,SSW,4.6,-,N/A,,Clear,200,2013-01-08 05:51:00
1:51 AM,28.9,21.9,75,30.38,10.0,SSW,3.5,-,N/A,,Clear,200,2013-01-08 06:51:00
2:51 AM,28.9,23.0,78,30.37,10.0,SSW,4.6,-,N/A,,Clear,210,2013-01-08 07:51:00
3:51 AM,28.0,21.9,78,30.36,10.0,SSW,4.6,-,N/A,,Clear,210,2013-01-08 08:51:00
4:51 AM,27.0,21.9,81,30.37,10.0,SSW,4.6,-,N/A,,Clear,210,2013-01-08 09:51:00
5:51 AM,27.0,21.9,81,30.38,9.0,South,4.6,-,N/A,,Clear,180,2013-01-08 10:51:00
6:51 AM,26.1,21.9,84,30.39,9.0,South,3.5,-,N/A,,Clear,170,2013-01-08 11:51:00
7:51 AM,28.9,24.1,82,30.41,8.0,SSW,4.6,-,N/A,,Clear,200,2013-01-08 12:51:00
8:51 AM,33.1,27.0,78,30.43,8.0,SSW,3.5,-,N/A,,Clear,210,2013-01-08 13:51:00
9:51 AM,37.0,28.0,70,30.42,8.0,SSW,5.8,-,N/A,,Clear,210,2013-01-08 14:51:00
10:51 AM,39.2,28.4,65,30.40,10.0,South,8.1,-,N/A,,Clear,180,2013-01-08 15:51:00
11:51 AM,44.1,28.9,55,30.36,10.0,South,10.4,-,N/A,,Clear,190,2013-01-08 16:51:00
12:51 PM,46.9,30.9,54,30.35,10.0,SSW,11.5,-,N/A,,Clear,210,2013-01-08 17:51:00
1:51 PM,48.0,30.0,50,30.34,10.0,SW,11.5,-,N/A,,Clear,230,2013-01-08 18:51:00
2:51 PM,48.0,28.9,48,30.34,10.0,SSW,8.1,-,N/A,,Clear,210,2013-01-08 19:51:00
3:51 PM,48.0,28.9,48,30.34,10.0,SW,9.2,-,N/A,,Clear,230,2013-01-08 20:51:00
4:51 PM,45.0,30.0,56,30.34,10.0,SSW,8.1,-,N/A,,Clear,210,2013-01-08 21:51:00
5:51 PM,44.1,28.0,53,30.35,10.0,SW,8.1,-,N/A,,Clear,220,2013-01-08 22:51:00
6:51 PM,43.0,28.0,56,30.37,10.0,SW,4.6,-,N/A,,Clear,230,2013-01-08 23:51:00
7:51 PM,37.9,28.0,68,30.37,10.0,SSW,4.6,-,N/A,,Clear,200,2013-01-09 00:51:00
8:51 PM,39.9,28.9,65,30.37,10.0,South,4.6,-,N/A,,Clear,170,2013-01-09 01:51:00
9:51 PM,36.0,28.0,73,30.38,10.0,South,3.5,-,N/A,,Clear,190,2013-01-09 02:51:00
10:51 PM,33.1,28.0,82,30.39,10.0,SSW,3.5,-,N/A,,Clear,210,2013-01-09 03:51:00
11:51 PM,33.1,28.0,82,30.39,10.0,Calm,Calm,-,N/A,,Clear,0,2013-01-09 04:51:00